createdAt,value
2023-03-15T00:03:55.220Z,6.60
2023-03-15T00:09:03.794Z,6.70
2023-03-15T00:14:10.918Z,6.60
2023-03-15T00:19:18.130Z,6.60
2023-03-15T00:24:25.362Z,6.80
2023-03-15T00:29:32.391Z,6.60
2023-03-15T00:34:39.183Z,6.60
2023-03-15T00:39:48.502Z,6.70
2023-03-15T00:44:56.335Z,6.50
2023-03-15T00:50:04.224Z,6.40
2023-03-15T00:55:14.550Z,6.40
2023-03-15T01:00:25.233Z,6.40
2023-03-15T01:05:32.300Z,6.50
2023-03-15T01:10:39.190Z,6.30
2023-03-15T01:15:48.230Z,6.40
2023-03-15T01:20:55.212Z,6.30
2023-03-15T01:26:11.822Z,6.40
2023-03-15T01:31:29.035Z,6.50
2023-03-15T01:36:36.136Z,6.40
2023-03-15T01:41:43.274Z,6.20
2023-03-15T01:46:50.227Z,6.30
2023-03-15T01:52:06.746Z,6.30
2023-03-15T01:57:32.549Z,6.10
2023-03-15T02:02:47.037Z,6.30
2023-03-15T02:07:55.018Z,6.20
2023-03-15T02:13:02.333Z,6.20
2023-03-15T02:18:09.297Z,6.20
2023-03-15T02:23:19.860Z,6.30
2023-03-15T02:28:27.265Z,6.30
2023-03-15T02:33:38.544Z,6.20
2023-03-15T02:38:45.284Z,6.00
2023-03-15T02:43:54.833Z,6.20
2023-03-15T02:49:03.073Z,6.20
2023-03-15T02:54:09.776Z,6.20
2023-03-15T02:59:16.465Z,6.10
2023-03-15T03:04:23.258Z,6.10
2023-03-15T03:09:29.916Z,6.20
2023-03-15T03:14:36.630Z,6.10
2023-03-15T03:19:43.289Z,6.30
2023-03-15T03:24:49.987Z,6.20
2023-03-15T03:29:56.770Z,6.20
2023-03-15T03:35:04.001Z,6.10
2023-03-15T03:40:12.305Z,6.10
2023-03-15T03:45:19.036Z,6.20
2023-03-15T03:50:25.793Z,6.10
2023-03-15T03:55:34.309Z,6.00
2023-03-15T04:00:47.282Z,6.00
2023-03-15T04:05:55.552Z,5.90
2023-03-15T04:11:03.920Z,5.90
2023-03-15T04:16:11.053Z,5.90
2023-03-15T04:21:19.395Z,6.00
2023-03-15T04:26:26.858Z,5.80
2023-03-15T04:31:35.215Z,5.90
2023-03-15T04:36:43.157Z,5.90
2023-03-15T04:41:49.833Z,5.80
2023-03-15T04:46:59.684Z,5.70
2023-03-15T04:52:06.687Z,5.70
2023-03-15T04:57:13.507Z,5.80
2023-03-15T05:02:20.473Z,5.70
2023-03-15T05:07:27.861Z,5.60
2023-03-15T05:12:34.851Z,5.70
2023-03-15T05:17:41.529Z,5.70
2023-03-15T05:22:48.963Z,5.70
2023-03-15T05:27:57.474Z,5.60
2023-03-15T05:33:05.685Z,5.50
2023-03-15T05:38:15.726Z,5.50
2023-03-15T05:43:23.269Z,5.80
2023-03-15T05:48:30.207Z,5.70
2023-03-15T05:53:37.665Z,5.50
2023-03-15T05:58:44.317Z,5.60
2023-03-15T06:03:51.319Z,5.50
2023-03-15T06:08:58.613Z,5.60
2023-03-15T06:14:05.669Z,5.50
2023-03-15T06:19:12.353Z,5.50
2023-03-15T06:24:19.960Z,5.70
2023-03-15T06:29:28.083Z,5.60
2023-03-15T06:34:34.752Z,5.70
2023-03-15T06:39:42.381Z,5.70
2023-03-15T06:44:51.120Z,5.80
2023-03-15T06:49:57.494Z,5.90
2023-03-15T06:55:04.998Z,5.90
2023-03-15T07:00:13.480Z,5.90
2023-03-15T07:05:20.733Z,5.90
2023-03-15T07:10:27.881Z,5.90
2023-03-15T07:15:34.621Z,5.70
2023-03-15T07:20:41.674Z,5.80
2023-03-15T07:25:55.078Z,5.90
2023-03-15T07:31:03.096Z,5.90
2023-03-15T07:36:11.219Z,6.00
2023-03-15T07:41:18.095Z,6.20
2023-03-15T07:46:25.227Z,6.30
2023-03-15T07:51:32.531Z,6.20
2023-03-15T07:56:39.747Z,6.10
2023-03-15T08:01:46.845Z,6.40
2023-03-15T08:06:54.115Z,6.50
2023-03-15T08:12:01.096Z,6.70
2023-03-15T08:17:10.013Z,6.60
2023-03-15T08:22:17.091Z,6.50
2023-03-15T08:27:24.205Z,6.60
2023-03-15T08:32:31.207Z,6.50
2023-03-15T08:37:38.485Z,6.50
2023-03-15T08:42:45.219Z,6.30
2023-03-15T08:47:53.916Z,6.00
2023-03-15T08:53:01.173Z,6.20
2023-03-15T08:58:08.639Z,5.80
2023-03-15T09:03:16.642Z,5.90
2023-03-15T09:08:25.207Z,6.10
2023-03-15T09:13:32.505Z,6.30
2023-03-15T09:18:41.589Z,6.40
2023-03-15T09:23:48.851Z,6.50
2023-03-15T09:28:55.929Z,6.30
2023-03-15T09:34:02.955Z,6.10
2023-03-15T09:39:09.978Z,6.40
2023-03-15T09:44:38.444Z,6.40
2023-03-15T09:50:06.822Z,6.30
2023-03-15T09:55:24.403Z,6.70
2023-03-15T10:00:41.469Z,6.20
2023-03-15T10:05:55.999Z,6.20
2023-03-15T10:11:36.809Z,6.40
2023-03-15T10:16:50.609Z,6.40
2023-03-15T10:22:22.974Z,6.60
2023-03-15T10:27:57.691Z,5.80
2023-03-15T10:33:11.856Z,6.80
2023-03-15T10:38:22.897Z,6.50
2023-03-15T10:43:34.851Z,6.30
2023-03-15T10:48:52.514Z,6.00
2023-03-15T10:54:18.841Z,6.00
2023-03-15T10:59:28.943Z,6.30
2023-03-15T11:04:35.885Z,6.80
2023-03-15T11:09:47.854Z,6.60
2023-03-15T11:14:59.234Z,6.60
2023-03-15T11:20:31.087Z,6.90
2023-03-15T11:25:38.141Z,7.00
2023-03-15T11:30:47.910Z,7.20
2023-03-15T11:35:55.393Z,7.60
2023-03-15T11:41:05.924Z,6.90
2023-03-15T11:46:17.113Z,7.20
2023-03-15T11:51:24.308Z,7.30
2023-03-15T11:56:47.386Z,6.80
2023-03-15T12:02:04.573Z,6.90
2023-03-15T12:07:23.022Z,6.40
2023-03-15T12:12:34.463Z,6.10
2023-03-15T12:17:53.505Z,6.70
2023-03-15T12:23:24.310Z,6.90
2023-03-15T12:28:37.473Z,6.70
2023-03-15T12:33:57.835Z,6.90
2023-03-15T12:39:24.079Z,6.20
2023-03-15T12:44:41.350Z,6.20
2023-03-15T12:49:49.178Z,6.20
2023-03-15T12:55:17.113Z,6.10
2023-03-15T13:00:30.787Z,6.10
2023-03-15T13:06:13.372Z,6.60
2023-03-15T13:11:36.420Z,6.30
2023-03-15T13:16:59.778Z,6.20
2023-03-15T13:22:31.979Z,6.30
2023-03-15T13:27:55.542Z,6.60
2023-03-15T13:33:12.160Z,6.50
2023-03-15T13:38:47.403Z,6.50
2023-03-15T13:43:58.213Z,6.00
2023-03-15T13:49:05.187Z,5.90
2023-03-15T13:54:36.125Z,6.00
2023-03-15T13:59:50.554Z,6.10
2023-03-15T14:05:07.272Z,6.20
2023-03-15T14:10:39.275Z,6.70
2023-03-15T14:15:47.926Z,6.20
2023-03-15T14:21:14.101Z,7.00
2023-03-15T14:26:30.968Z,7.30
2023-03-15T14:31:42.552Z,7.00
2023-03-15T14:36:49.583Z,7.60
2023-03-15T14:41:56.496Z,6.90
2023-03-15T14:47:04.049Z,6.60
2023-03-15T14:52:12.957Z,6.30
2023-03-15T14:57:20.035Z,6.30
2023-03-15T15:02:26.858Z,6.00
2023-03-15T15:07:33.908Z,5.80
2023-03-15T15:12:41.684Z,5.80
2023-03-15T15:17:49.112Z,5.70
2023-03-15T15:22:57.541Z,5.60
2023-03-15T15:28:06.138Z,5.30
2023-03-15T15:33:13.925Z,5.50
2023-03-15T15:38:20.845Z,5.10
2023-03-15T15:43:28.091Z,5.20
2023-03-15T15:48:35.011Z,4.90
2023-03-15T15:53:41.754Z,4.80
2023-03-15T15:58:49.639Z,4.70
2023-03-15T16:03:56.782Z,4.70
2023-03-15T16:09:03.720Z,4.50
2023-03-15T16:14:14.566Z,4.50
2023-03-15T16:19:21.648Z,4.40
2023-03-15T16:24:36.488Z,4.40
2023-03-15T16:29:48.618Z,4.50
2023-03-15T16:34:56.282Z,4.30
2023-03-15T16:40:05.724Z,4.20
2023-03-15T16:45:15.715Z,3.90
2023-03-15T16:50:23.151Z,3.90
2023-03-15T16:55:35.884Z,3.80
2023-03-15T17:00:44.102Z,3.60
2023-03-15T17:05:51.374Z,3.60
2023-03-15T17:10:58.294Z,3.40
2023-03-15T17:16:05.045Z,3.30
2023-03-15T17:21:15.271Z,3.50
2023-03-15T17:26:25.223Z,3.50
2023-03-15T17:31:33.544Z,3.20
2023-03-15T17:36:41.384Z,3.40
2023-03-15T17:41:49.910Z,3.20
2023-03-15T17:46:57.116Z,3.30
2023-03-15T17:52:04.679Z,3.10
2023-03-15T17:57:14.856Z,3.10
2023-03-15T18:02:22.109Z,3.10
2023-03-15T18:07:30.382Z,3.00
2023-03-15T18:12:37.217Z,3.00
2023-03-15T18:17:44.289Z,3.20
2023-03-15T18:22:52.345Z,3.00
2023-03-15T18:27:59.270Z,2.90
2023-03-15T18:33:06.318Z,2.80
2023-03-15T18:38:13.773Z,2.80
2023-03-15T18:43:20.779Z,3.00
2023-03-15T18:48:40.093Z,3.20
2023-03-15T18:53:39.597Z,2.80
2023-03-15T18:58:48.168Z,2.80
2023-03-15T19:03:55.996Z,2.50
2023-03-15T19:09:02.726Z,2.40
2023-03-15T19:14:11.130Z,2.60
2023-03-15T19:19:18.032Z,2.60
2023-03-15T19:24:25.942Z,2.50
2023-03-15T19:29:32.834Z,2.90
2023-03-15T19:34:40.718Z,2.80
2023-03-15T19:39:48.009Z,2.70
2023-03-15T19:44:55.047Z,2.80
2023-03-15T19:50:03.038Z,2.80
2023-03-15T19:55:11.087Z,2.60
2023-03-15T20:00:20.164Z,2.40
2023-03-15T20:05:27.709Z,1.90
2023-03-15T20:10:34.427Z,2.20
2023-03-15T20:15:41.210Z,2.10
2023-03-15T20:20:47.868Z,2.00
2023-03-15T20:25:56.135Z,2.20
2023-03-15T20:31:08.951Z,2.50
2023-03-15T20:36:16.989Z,2.30
2023-03-15T20:41:23.634Z,2.30
2023-03-15T20:46:31.495Z,2.10
2023-03-15T20:51:38.652Z,2.20
2023-03-15T20:56:45.809Z,2.20
2023-03-15T21:01:53.023Z,2.20
2023-03-15T21:07:01.608Z,2.20
2023-03-15T21:12:08.582Z,2.20
2023-03-15T21:17:15.309Z,2.30
2023-03-15T21:22:22.455Z,2.40
2023-03-15T21:27:29.443Z,2.40
2023-03-15T21:32:36.602Z,2.40
2023-03-15T21:37:43.643Z,2.10
2023-03-15T21:42:50.769Z,2.10
2023-03-15T21:47:57.587Z,2.00
2023-03-15T21:53:04.472Z,1.90
2023-03-15T21:58:12.083Z,2.20
2023-03-15T22:03:19.396Z,2.00
2023-03-15T22:08:27.104Z,2.20
2023-03-15T22:13:34.691Z,2.20
2023-03-15T22:18:41.994Z,2.10
2023-03-15T22:23:49.063Z,2.40
2023-03-15T22:28:57.046Z,2.30
2023-03-15T22:34:04.899Z,2.20
2023-03-15T22:39:12.929Z,2.10
2023-03-15T22:44:20.166Z,2.10
2023-03-15T22:49:27.606Z,2.00
2023-03-15T22:54:34.521Z,2.00
2023-03-15T22:59:42.000Z,2.20
2023-03-15T23:04:49.704Z,2.30
